createdAt,value
2023-01-25T00:00:30.479Z,1.30
2023-01-25T00:02:57.402Z,1.20
2023-01-25T00:05:24.319Z,1.20
2023-01-25T00:07:50.924Z,1.20
2023-01-25T00:10:17.701Z,1.10
2023-01-25T00:12:44.269Z,1.20
2023-01-25T00:15:11.182Z,1.10
2023-01-25T00:17:37.785Z,1.20
2023-01-25T00:20:04.710Z,1.20
2023-01-25T00:22:31.251Z,1.20
2023-01-25T00:24:57.826Z,1.10
2023-01-25T00:27:24.364Z,1.10
2023-01-25T00:29:50.936Z,1.20
2023-01-25T00:32:17.545Z,1.20
2023-01-25T00:34:49.502Z,1.20
2023-01-25T00:37:24.608Z,1.20
2023-01-25T00:39:52.024Z,1.10
2023-01-25T00:42:19.846Z,1.10
2023-01-25T00:44:47.998Z,1.00
2023-01-25T00:47:15.478Z,1.00
2023-01-25T00:49:44.002Z,1.10
2023-01-25T00:52:11.756Z,1.10
2023-01-25T00:54:38.740Z,1.10
2023-01-25T00:57:05.385Z,1.00
2023-01-25T00:59:31.952Z,1.10
2023-01-25T01:01:58.830Z,1.00
2023-01-25T01:04:25.703Z,1.00
2023-01-25T01:06:53.818Z,1.00
2023-01-25T01:09:21.798Z,1.00
2023-01-25T01:11:48.441Z,1.00
2023-01-25T01:14:15.394Z,1.00
2023-01-25T01:16:42.025Z,1.00
2023-01-25T01:19:08.629Z,1.00
2023-01-25T01:21:35.255Z,1.00
2023-01-25T01:24:01.859Z,1.00
2023-01-25T01:26:28.449Z,1.10
2023-01-25T01:28:55.058Z,1.10
2023-01-25T01:31:23.617Z,1.00
2023-01-25T01:33:55.446Z,1.10
2023-01-25T01:36:23.939Z,1.00
2023-01-25T01:38:50.589Z,1.00
2023-01-25T01:41:18.145Z,1.00
2023-01-25T01:43:45.385Z,1.00
2023-01-25T01:46:24.121Z,1.00
2023-01-25T01:48:58.988Z,1.00
2023-01-25T01:51:47.313Z,1.00
2023-01-25T01:54:31.409Z,1.00
2023-01-25T01:57:14.970Z,1.00
2023-01-25T01:59:53.286Z,1.10
2023-01-25T02:02:20.101Z,1.10
2023-01-25T02:04:50.802Z,1.10
2023-01-25T02:07:19.678Z,1.10
2023-01-25T02:09:47.872Z,1.10
2023-01-25T02:12:15.594Z,1.00
2023-01-25T02:14:47.949Z,1.00
2023-01-25T02:17:14.721Z,1.00
2023-01-25T02:20:09.230Z,0.90
2023-01-25T02:23:01.751Z,0.90
2023-01-25T02:25:29.670Z,0.90
2023-01-25T02:28:04.336Z,0.90
2023-01-25T02:30:31.269Z,1.00
2023-01-25T02:32:57.843Z,1.00
2023-01-25T02:35:56.119Z,0.90
2023-01-25T02:38:22.879Z,0.90
2023-01-25T02:40:55.775Z,0.90
2023-01-25T02:43:27.246Z,0.90
2023-01-25T02:46:01.136Z,0.90
2023-01-25T02:48:27.774Z,0.90
2023-01-25T02:50:54.493Z,0.90
2023-01-25T02:53:21.101Z,0.80
2023-01-25T02:55:47.638Z,0.90
2023-01-25T02:58:14.210Z,0.90
2023-01-25T03:00:40.827Z,0.10
2023-01-25T03:03:07.394Z,0.80
2023-01-25T03:05:33.982Z,0.80
2023-01-25T03:08:00.626Z,0.80
2023-01-25T03:10:27.180Z,0.90
2023-01-25T03:12:53.859Z,0.90
2023-01-25T03:15:20.419Z,0.90
2023-01-25T03:17:46.962Z,0.90
2023-01-25T03:20:13.567Z,0.80
2023-01-25T03:22:40.168Z,0.90
2023-01-25T03:25:07.861Z,0.80
2023-01-25T03:27:34.594Z,0.80
2023-01-25T03:30:01.144Z,0.90
2023-01-25T03:32:27.837Z,0.90
2023-01-25T03:34:54.463Z,0.90
2023-01-25T03:37:21.385Z,1.00
2023-01-25T03:39:47.937Z,0.90
2023-01-25T03:42:15.196Z,0.80
2023-01-25T03:44:41.756Z,0.80
2023-01-25T03:47:08.365Z,0.80
2023-01-25T03:49:35.039Z,0.70
2023-01-25T03:52:01.675Z,0.70
2023-01-25T03:54:28.306Z,0.70
2023-01-25T03:56:54.935Z,0.70
2023-01-25T03:59:21.548Z,0.70
2023-01-25T04:01:48.402Z,0.70
2023-01-25T04:04:15.056Z,0.60
2023-01-25T04:06:41.700Z,0.50
2023-01-25T04:09:08.439Z,0.60
2023-01-25T04:11:35.135Z,0.60
2023-01-25T04:14:01.805Z,0.60
2023-01-25T04:16:30.408Z,0.60
2023-01-25T04:18:57.214Z,0.70
2023-01-25T04:21:24.110Z,0.70
2023-01-25T04:23:50.816Z,0.60
2023-01-25T04:26:17.447Z,0.70
2023-01-25T04:28:44.057Z,0.70
2023-01-25T04:31:11.208Z,0.70
2023-01-25T04:33:37.830Z,0.70
2023-01-25T04:36:05.755Z,0.80
2023-01-25T04:38:32.306Z,0.70
2023-01-25T04:40:59.049Z,0.80
2023-01-25T04:43:26.509Z,0.60
2023-01-25T04:45:53.247Z,0.60
2023-01-25T04:48:19.999Z,0.50
2023-01-25T04:50:46.845Z,0.40
2023-01-25T04:53:13.882Z,0.50
2023-01-25T04:55:40.744Z,0.40
2023-01-25T04:58:07.333Z,0.50
2023-01-25T05:00:33.959Z,0.50
2023-01-25T05:03:00.561Z,0.50
2023-01-25T05:05:27.306Z,0.50
2023-01-25T05:07:53.849Z,0.50
2023-01-25T05:10:20.494Z,0.60
2023-01-25T05:12:47.055Z,0.70
2023-01-25T05:15:13.967Z,0.60
2023-01-25T05:17:40.593Z,0.70
2023-01-25T05:20:07.743Z,0.60
2023-01-25T05:22:34.290Z,0.60
2023-01-25T05:25:02.800Z,0.70
2023-01-25T05:27:29.708Z,0.70
2023-01-25T05:29:57.406Z,0.70
2023-01-25T05:32:24.568Z,0.60
2023-01-25T05:34:51.294Z,0.60
2023-01-25T05:37:19.799Z,0.60
2023-01-25T05:39:46.412Z,0.50
2023-01-25T05:42:17.983Z,0.40
2023-01-25T05:44:47.093Z,0.40
2023-01-25T05:47:16.546Z,0.40
2023-01-25T05:49:43.616Z,0.40
2023-01-25T05:52:15.057Z,0.50
2023-01-25T05:54:41.816Z,0.60
2023-01-25T05:57:08.452Z,0.60
2023-01-25T05:59:51.427Z,0.60
2023-01-25T06:02:18.032Z,2.80
2023-01-25T06:04:44.658Z,0.60
2023-01-25T06:07:11.248Z,0.80
2023-01-25T06:09:37.804Z,0.70
2023-01-25T06:12:06.006Z,0.70
2023-01-25T06:14:32.959Z,0.70
2023-01-25T06:16:59.480Z,0.70
2023-01-25T06:19:26.058Z,0.70
2023-01-25T06:21:52.653Z,0.60
2023-01-25T06:24:19.339Z,0.60
2023-01-25T06:26:45.901Z,0.60
2023-01-25T06:29:12.511Z,0.60
2023-01-25T06:31:39.135Z,0.60
2023-01-25T06:34:06.355Z,0.60
2023-01-25T06:36:33.155Z,0.70
2023-01-25T06:41:27.660Z,0.70
2023-01-25T06:43:55.754Z,0.70
2023-01-25T06:46:22.387Z,0.70
2023-01-25T06:48:49.174Z,0.70
2023-01-25T06:51:15.946Z,0.70
2023-01-25T06:53:45.066Z,0.70
2023-01-25T06:56:17.793Z,0.60
2023-01-25T06:58:45.131Z,0.50
2023-01-25T07:01:26.904Z,0.50
2023-01-25T07:03:55.920Z,0.50
2023-01-25T07:06:23.715Z,0.50
2023-01-25T07:08:50.839Z,0.60
2023-01-25T07:11:18.965Z,0.60
2023-01-25T07:13:47.481Z,0.50
2023-01-25T07:16:17.377Z,0.60
2023-01-25T07:18:44.436Z,0.60
2023-01-25T07:21:13.895Z,0.60
2023-01-25T07:23:41.650Z,0.70
2023-01-25T07:26:19.883Z,0.70
2023-01-25T07:28:47.485Z,0.60
2023-01-25T07:31:15.497Z,0.70
2023-01-25T07:33:42.169Z,0.70
2023-01-25T07:36:10.687Z,0.60
2023-01-25T07:38:37.977Z,0.70
2023-01-25T07:41:05.269Z,0.80
2023-01-25T07:43:32.324Z,0.80
2023-01-25T07:46:07.023Z,0.80
2023-01-25T07:48:34.220Z,0.80
2023-01-25T07:51:20.342Z,0.70
2023-01-25T07:53:47.397Z,0.70
2023-01-25T07:56:13.948Z,0.70
2023-01-25T07:58:40.495Z,0.70
2023-01-25T08:01:16.042Z,0.80
2023-01-25T08:03:43.935Z,0.80
2023-01-25T08:06:11.028Z,0.80
2023-01-25T08:08:41.311Z,0.80
2023-01-25T08:11:15.188Z,0.80
2023-01-25T08:13:49.711Z,0.90
2023-01-25T08:16:19.146Z,0.80
2023-01-25T08:18:50.191Z,0.80
2023-01-25T08:21:17.248Z,0.80
2023-01-25T08:23:44.008Z,0.90
2023-01-25T08:26:12.958Z,0.90
2023-01-25T08:28:40.199Z,0.90
2023-01-25T08:31:11.864Z,0.90
2023-01-25T08:33:39.753Z,0.80
2023-01-25T08:36:09.383Z,0.90
2023-01-25T08:38:36.668Z,0.80
2023-01-25T08:41:08.772Z,0.70
2023-01-25T08:43:35.771Z,0.70
2023-01-25T08:46:03.658Z,0.90
2023-01-25T08:48:30.242Z,0.90
2023-01-25T08:50:56.971Z,0.90
2023-01-25T08:53:23.686Z,0.70
2023-01-25T08:55:51.109Z,0.70
2023-01-25T08:58:21.878Z,0.70
2023-01-25T09:00:49.602Z,0.80
2023-01-25T09:03:18.018Z,0.80
2023-01-25T09:05:44.753Z,0.70
2023-01-25T09:08:11.584Z,0.70
2023-01-25T09:10:38.180Z,0.70
2023-01-25T09:13:06.403Z,0.60
2023-01-25T09:15:34.384Z,0.60
2023-01-25T09:18:01.095Z,0.60
2023-01-25T09:20:28.314Z,0.70
2023-01-25T09:22:56.185Z,0.90
2023-01-25T09:25:22.835Z,0.90
2023-01-25T09:27:55.211Z,1.00
2023-01-25T09:30:26.355Z,1.10
2023-01-25T09:32:57.416Z,1.10
2023-01-25T09:35:24.063Z,1.10
2023-01-25T09:37:52.118Z,1.10
2023-01-25T09:40:22.237Z,1.00
2023-01-25T09:43:05.759Z,0.80
2023-01-25T09:45:36.569Z,0.70
2023-01-25T09:48:28.239Z,0.80
2023-01-25T09:51:27.679Z,0.80
2023-01-25T09:53:57.052Z,0.80
2023-01-25T09:56:33.909Z,0.90
2023-01-25T09:59:10.611Z,0.90
2023-01-25T10:01:59.697Z,0.90
2023-01-25T10:04:37.605Z,1.00
2023-01-25T10:07:21.441Z,0.90
2023-01-25T10:09:59.821Z,1.00
2023-01-25T10:12:33.522Z,1.00
2023-01-25T10:15:00.120Z,1.00
2023-01-25T10:17:39.332Z,1.10
2023-01-25T10:20:24.059Z,1.10
2023-01-25T10:23:06.601Z,1.00
2023-01-25T10:25:46.033Z,1.00
2023-01-25T10:28:30.225Z,1.00
2023-01-25T10:31:05.866Z,1.10
2023-01-25T10:33:40.215Z,1.20
2023-01-25T10:36:07.342Z,1.10
2023-01-25T10:38:39.413Z,1.10
2023-01-25T10:41:16.656Z,1.20
2023-01-25T10:43:43.287Z,1.20
2023-01-25T10:46:25.558Z,1.00
2023-01-25T10:48:52.252Z,1.10
2023-01-25T10:51:30.287Z,1.30
2023-01-25T10:54:03.524Z,1.40
2023-01-25T10:56:33.925Z,1.30
2023-01-25T10:59:19.136Z,1.20
2023-01-25T11:01:45.851Z,1.20
2023-01-25T11:04:23.206Z,1.10
2023-01-25T11:06:51.348Z,1.10
2023-01-25T11:09:21.021Z,1.10
2023-01-25T11:11:56.260Z,1.20
2023-01-25T11:14:26.954Z,1.20
2023-01-25T11:16:55.253Z,1.20
2023-01-25T11:19:38.152Z,1.20
2023-01-25T11:22:26.247Z,1.30
2023-01-25T11:24:52.897Z,1.40
2023-01-25T11:27:25.222Z,1.30
2023-01-25T11:30:15.838Z,1.30
2023-01-25T11:32:42.681Z,1.40
2023-01-25T11:35:33.013Z,1.30
2023-01-25T11:38:14.770Z,1.30
2023-01-25T11:40:50.415Z,1.20
2023-01-25T11:43:24.003Z,1.30
2023-01-25T11:45:54.112Z,1.30
2023-01-25T11:49:03.062Z,1.30
2023-01-25T11:51:46.108Z,1.40
2023-01-25T11:54:29.683Z,1.40
2023-01-25T11:57:24.513Z,1.30
2023-01-25T12:00:00.816Z,1.30
2023-01-25T12:02:56.443Z,1.30
2023-01-25T12:05:38.805Z,1.20
2023-01-25T12:08:38.828Z,1.10
2023-01-25T12:11:05.332Z,1.10
2023-01-25T12:13:47.429Z,1.20
2023-01-25T12:16:54.692Z,1.30
2023-01-25T12:19:45.137Z,1.10
2023-01-25T12:22:45.458Z,1.20
2023-01-25T12:25:47.687Z,1.00
2023-01-25T12:28:27.545Z,1.00
2023-01-25T12:31:16.911Z,1.10
2023-01-25T12:33:51.604Z,1.00
2023-01-25T12:36:23.897Z,1.10
2023-01-25T12:38:59.601Z,1.30
2023-01-25T12:42:04.703Z,1.20
2023-01-25T12:44:37.623Z,1.30
2023-01-25T12:47:20.440Z,1.30
2023-01-25T12:49:59.369Z,1.30
2023-01-25T12:52:39.385Z,1.50
2023-01-25T12:55:12.755Z,1.40
2023-01-25T12:57:50.549Z,1.30
2023-01-25T13:00:23.505Z,1.30
2023-01-25T13:03:08.069Z,1.30
2023-01-25T13:05:39.492Z,1.20
2023-01-25T13:08:30.064Z,1.10
2023-01-25T13:11:13.095Z,1.10
2023-01-25T13:13:39.889Z,1.20
2023-01-25T13:16:50.196Z,1.40
2023-01-25T13:19:20.853Z,1.40
2023-01-25T13:21:49.649Z,1.30
2023-01-25T13:24:29.312Z,1.40
2023-01-25T13:26:55.817Z,1.30
2023-01-25T13:29:42.888Z,1.40
2023-01-25T13:32:15.285Z,1.30
2023-01-25T13:34:42.433Z,1.20
2023-01-25T13:37:18.895Z,1.20
2023-01-25T13:39:49.248Z,1.20
2023-01-25T13:42:21.447Z,1.20
2023-01-25T13:44:51.715Z,1.30
2023-01-25T13:47:22.536Z,1.30
2023-01-25T13:49:55.358Z,1.40
2023-01-25T13:52:23.430Z,1.40
2023-01-25T13:54:53.925Z,1.40
2023-01-25T13:57:26.842Z,1.50
2023-01-25T14:00:11.706Z,1.20
2023-01-25T14:02:39.538Z,1.20
2023-01-25T14:05:08.027Z,1.30
2023-01-25T14:07:36.891Z,1.30
2023-01-25T14:10:10.480Z,1.20
2023-01-25T14:12:42.746Z,1.30
2023-01-25T14:15:28.405Z,1.40
2023-01-25T14:18:13.055Z,1.40
2023-01-25T14:20:40.443Z,1.30
2023-01-25T14:23:24.571Z,1.30
2023-01-25T14:25:52.442Z,1.30
2023-01-25T14:28:19.157Z,1.30
2023-01-25T14:30:54.967Z,1.30
2023-01-25T14:33:31.391Z,1.30
2023-01-25T14:36:24.143Z,1.40
2023-01-25T14:38:52.049Z,1.40
2023-01-25T14:41:20.227Z,1.40
2023-01-25T14:43:53.792Z,1.30
2023-01-25T14:46:20.486Z,1.30
2023-01-25T14:48:47.220Z,1.20
2023-01-25T14:51:30.065Z,1.20
2023-01-25T14:54:05.227Z,1.20
2023-01-25T14:56:42.733Z,1.20
2023-01-25T14:59:27.387Z,1.20
2023-01-25T15:01:56.166Z,1.20
2023-01-25T15:04:23.378Z,1.20
2023-01-25T15:06:52.483Z,1.20
2023-01-25T15:09:40.528Z,1.20
2023-01-25T15:12:16.108Z,1.10
2023-01-25T15:14:53.786Z,1.10
2023-01-25T15:17:43.883Z,1.20
2023-01-25T15:20:33.552Z,1.20
2023-01-25T15:23:26.342Z,1.20
2023-01-25T15:26:00.710Z,1.10
2023-01-25T15:28:34.210Z,1.10
2023-01-25T15:31:01.106Z,1.00
2023-01-25T15:33:29.695Z,1.00
2023-01-25T15:35:56.544Z,1.20
2023-01-25T15:38:24.293Z,1.10
2023-01-25T15:40:52.024Z,1.10
2023-01-25T15:43:19.774Z,1.00
2023-01-25T15:45:49.292Z,1.00
2023-01-25T15:48:28.755Z,1.00
2023-01-25T15:50:56.475Z,1.00
2023-01-25T15:53:23.878Z,1.00
2023-01-25T15:56:15.468Z,1.00
2023-01-25T15:58:45.701Z,1.00
2023-01-25T16:01:12.834Z,1.00
2023-01-25T16:03:41.484Z,1.00
2023-01-25T16:06:20.563Z,1.00
2023-01-25T16:08:47.328Z,0.90
2023-01-25T16:11:14.029Z,0.90
2023-01-25T16:13:41.368Z,0.80
2023-01-25T16:16:19.362Z,0.80
2023-01-25T16:18:46.286Z,0.80
2023-01-25T16:21:13.219Z,0.70
2023-01-25T16:23:40.483Z,0.70
2023-01-25T16:26:17.644Z,0.70
2023-01-25T16:28:44.241Z,0.60
2023-01-25T16:31:26.284Z,0.60
2023-01-25T16:33:58.427Z,0.60
2023-01-25T16:36:25.113Z,0.60
2023-01-25T16:38:51.704Z,0.60
2023-01-25T16:41:18.731Z,0.60
2023-01-25T16:43:47.694Z,0.60
2023-01-25T16:46:21.016Z,0.60
2023-01-25T16:48:49.367Z,0.50
2023-01-25T16:51:18.337Z,0.60
2023-01-25T16:53:46.536Z,0.50
2023-01-25T16:56:17.283Z,0.50
2023-01-25T16:58:44.210Z,0.40
2023-01-25T17:01:12.619Z,0.30
2023-01-25T17:03:39.329Z,0.40
2023-01-25T17:06:06.699Z,0.30
2023-01-25T17:08:33.598Z,0.30
2023-01-25T17:11:05.323Z,0.30
2023-01-25T17:13:32.447Z,0.30
2023-01-25T17:16:00.927Z,0.40
2023-01-25T17:18:28.038Z,0.30
2023-01-25T17:21:02.750Z,0.20
2023-01-25T17:23:32.272Z,0.30
2023-01-25T17:25:58.904Z,0.20
2023-01-25T17:28:25.486Z,0.20
2023-01-25T17:30:54.336Z,0.20
2023-01-25T17:33:21.138Z,0.20
2023-01-25T17:35:47.735Z,0.20
2023-01-25T17:38:14.445Z,0.10
2023-01-25T17:40:41.211Z,0.00
2023-01-25T17:43:07.759Z,0.00
2023-01-25T17:45:38.443Z,0.10
2023-01-25T17:48:07.607Z,0.10
2023-01-25T17:50:34.669Z,0.10
2023-01-25T17:53:01.335Z,0.10
2023-01-25T17:55:29.574Z,0.00
2023-01-25T17:57:58.410Z,0.00
2023-01-25T18:00:25.120Z,-0.10
2023-01-25T18:02:52.186Z,0.00
2023-01-25T18:05:18.899Z,0.00
2023-01-25T18:07:45.503Z,0.00
2023-01-25T18:10:12.618Z,0.00
2023-01-25T18:12:39.496Z,-0.10
2023-01-25T18:15:07.002Z,-0.20
2023-01-25T18:17:35.617Z,-0.20
2023-01-25T18:20:06.728Z,-0.20
2023-01-25T18:22:33.334Z,-0.20
2023-01-25T18:25:00.788Z,-0.30
2023-01-25T18:27:28.884Z,-0.30
2023-01-25T18:30:03.856Z,-0.30
2023-01-25T18:32:32.795Z,-0.30
2023-01-25T18:34:59.643Z,-0.30
2023-01-25T18:37:29.364Z,-0.30
2023-01-25T18:39:56.816Z,-0.30
2023-01-25T18:42:25.813Z,-0.40
2023-01-25T18:44:52.515Z,-0.40
2023-01-25T18:47:20.812Z,-0.40
2023-01-25T18:49:51.776Z,-0.40
2023-01-25T18:52:20.440Z,-0.30
2023-01-25T18:54:47.280Z,-0.40
2023-01-25T18:57:14.353Z,-0.50
2023-01-25T18:59:40.989Z,-0.50
2023-01-25T19:02:11.413Z,-0.50
2023-01-25T19:04:38.074Z,-0.50
2023-01-25T19:07:04.829Z,-0.40
2023-01-25T19:09:31.707Z,-0.50
2023-01-25T19:11:58.372Z,-0.50
2023-01-25T19:14:25.292Z,-0.50
2023-01-25T19:16:52.262Z,-0.50
2023-01-25T19:19:20.796Z,-0.50
2023-01-25T19:21:47.862Z,-0.40
2023-01-25T19:24:19.415Z,-0.50
2023-01-25T19:26:47.231Z,-0.50
2023-01-25T19:29:14.729Z,-0.50
2023-01-25T19:31:41.331Z,-0.50
2023-01-25T19:34:08.015Z,-0.50
2023-01-25T19:36:37.230Z,-0.50
2023-01-25T19:39:05.727Z,-0.50
2023-01-25T19:41:33.803Z,-0.60
2023-01-25T19:44:02.500Z,-0.60
2023-01-25T19:46:31.564Z,-0.50
2023-01-25T19:48:59.536Z,-0.50
2023-01-25T19:51:30.389Z,-0.50
2023-01-25T19:54:00.167Z,-0.50
2023-01-25T19:56:28.456Z,-0.50
2023-01-25T19:58:55.241Z,-0.50
2023-01-25T20:01:24.724Z,-0.50
2023-01-25T20:03:52.119Z,-0.50
2023-01-25T20:06:20.402Z,-0.60
2023-01-25T20:08:47.803Z,-0.50
2023-01-25T20:11:16.936Z,-0.50
2023-01-25T20:13:43.916Z,-0.50
2023-01-25T20:16:12.269Z,-0.50
2023-01-25T20:18:39.578Z,-0.50
2023-01-25T20:21:17.913Z,-0.40
2023-01-25T20:23:46.553Z,-0.40
2023-01-25T20:26:27.878Z,-0.50
2023-01-25T20:28:56.920Z,-0.50
2023-01-25T20:31:28.617Z,-0.50
2023-01-25T20:33:58.316Z,-0.60
2023-01-25T20:36:27.815Z,-0.60
2023-01-25T20:38:55.310Z,-0.50
2023-01-25T20:41:21.852Z,-0.40
2023-01-25T20:43:54.015Z,-0.50
2023-01-25T20:46:21.718Z,-0.50
2023-01-25T20:48:48.981Z,-0.50
2023-01-25T20:51:21.258Z,-0.50
2023-01-25T20:53:49.422Z,-0.50
2023-01-25T20:56:17.988Z,-0.50
2023-01-25T20:58:50.207Z,-0.50
2023-01-25T21:01:39.929Z,-0.50
2023-01-25T21:04:09.373Z,-0.50
2023-01-25T21:06:35.979Z,-0.40
2023-01-25T21:09:03.193Z,-0.50
2023-01-25T21:11:29.997Z,-0.60
2023-01-25T21:13:57.113Z,-0.50
2023-01-25T21:16:23.770Z,-0.60
2023-01-25T21:18:54.423Z,-0.60
2023-01-25T21:21:27.593Z,-0.50
2023-01-25T21:23:56.859Z,-0.50
2023-01-25T21:26:29.373Z,-0.50
2023-01-25T21:28:57.800Z,-0.50
2023-01-25T21:31:27.546Z,-0.50
2023-01-25T21:33:54.964Z,-0.50
2023-01-25T21:36:22.523Z,-0.50
2023-01-25T21:38:50.650Z,-0.50
2023-01-25T21:41:24.006Z,-0.40
2023-01-25T21:44:10.648Z,-0.40
2023-01-25T21:46:37.918Z,-0.50
2023-01-25T21:49:25.459Z,-0.50
2023-01-25T21:51:54.451Z,-0.50
2023-01-25T21:54:25.821Z,-0.60
2023-01-25T21:56:54.219Z,-0.60
2023-01-25T21:59:21.524Z,-0.50
2023-01-25T22:01:48.976Z,-0.50
2023-01-25T22:04:17.582Z,-0.50
2023-01-25T22:06:44.674Z,-0.50
2023-01-25T22:09:13.205Z,-0.50
2023-01-25T22:11:40.158Z,-0.50
2023-01-25T22:14:07.122Z,-0.60
2023-01-25T22:16:33.901Z,-0.60
2023-01-25T22:19:00.492Z,-0.60
2023-01-25T22:21:30.957Z,-0.60
2023-01-25T22:23:59.612Z,-0.60
2023-01-25T22:26:30.523Z,-0.50
2023-01-25T22:28:58.419Z,-0.60
2023-01-25T22:31:29.970Z,-0.60
2023-01-25T22:33:58.959Z,-0.60
2023-01-25T22:36:27.480Z,-0.60
2023-01-25T22:38:54.275Z,-0.70
2023-01-25T22:41:29.862Z,-0.70
2023-01-25T22:43:57.789Z,-0.70
2023-01-25T22:46:27.196Z,-0.60
2023-01-25T22:48:53.797Z,-0.60
2023-01-25T22:51:25.243Z,-0.80
2023-01-25T22:53:52.295Z,-0.80
2023-01-25T22:56:21.158Z,-0.80
2023-01-25T22:58:48.164Z,-0.80
2023-01-25T23:01:21.110Z,-0.70
2023-01-25T23:03:49.202Z,-0.70
2023-01-25T23:06:25.507Z,-0.70
2023-01-25T23:08:56.035Z,-0.70
2023-01-25T23:11:24.510Z,-0.60
2023-01-25T23:14:11.529Z,-0.70
2023-01-25T23:16:38.081Z,-0.80
2023-01-25T23:19:05.710Z,-0.70
2023-01-25T23:21:32.521Z,-0.70
2023-01-25T23:24:01.259Z,-0.80
2023-01-25T23:26:29.640Z,-0.70
2023-01-25T23:28:57.513Z,-0.70
2023-01-25T23:31:25.299Z,-0.70
2023-01-25T23:33:55.976Z,-0.60
2023-01-25T23:36:23.936Z,-0.60
2023-01-25T23:38:51.336Z,-0.70
2023-01-25T23:41:19.580Z,-0.70
2023-01-25T23:43:46.410Z,-0.70
2023-01-25T23:46:16.165Z,-0.70
2023-01-25T23:48:44.236Z,-0.80
2023-01-25T23:51:12.068Z,-0.70
2023-01-25T23:53:39.695Z,-0.70
2023-01-25T23:56:15.753Z,-0.60
2023-01-25T23:58:42.481Z,-0.60
